^^
Meteo Knjazevac Station Historical Data
Daily Summary for August 24, 2021 Units:  Both    English   Metric
Daily Weekly Monthly Yearly Custom
  High: Low: Average:
Temperature: 87.6 °F /  30.9 °C 62.8 °F /  17.1 °C 71.4 °F /  21.9 °C
Dew Point: 65.9 °F /  18.8 °C 52.8 °F /  11.6 °C 60 °F /  15.6 °C
Humidity: 84% 44% 69%
Wind Speed: 5mph /  8km/h - 2mph /  3.2km/h
Wind Gust: 12mph /  19.3km/h - -
Wind- - SW
Pressure: 30.08 in /  1018.5 hPa 30.00 in /  1015.8 hPa -
Precipitation: 0.00 in /  0 mm    
Historical Graphs
 
 
Tabular Data for August 24, 2021
Time Temperature Dew Point Pressure Wind Wind Speed Wind Gust Humidity Rainfall Rate (Hourly) solar Conditions
00:00 66 °F /  18.9 °C 53.9 °F /  12.2 °C 30.02in /  1016.5hPa WNW 1mph /  1.6km/h 2mph /  3.2km/h 65% 0.00in /  0mm 0 W/m2
00:10 65.7 °F /  18.7 °C 54.4 °F /  12.4 °C 30.02in /  1016.5hPa Calm   2mph /  3.2km/h 67% 0.00in /  0mm 0 W/m2
00:20 65.5 °F /  18.6 °C 54.2 °F /  12.3 °C 30.02in /  1016.5hPa East 1mph /  1.6km/h 3mph /  4.8km/h 67% 0.00in /  0mm 0 W/m2
00:30 65.1 °F /  18.4 °C 54.3 °F /  12.4 °C 30.02in /  1016.5hPa North 1mph /  1.6km/h 3mph /  4.8km/h 68% 0.00in /  0mm 0 W/m2
00:40 64.8 °F /  18.2 °C 54.3 °F /  12.4 °C 30.02in /  1016.5hPa Calm   2mph /  3.2km/h 69% 0.00in /  0mm 0 W/m2
00:50 64.5 °F /  18.1 °C 53.7 °F /  12.1 °C 30.02in /  1016.5hPa SSE 1mph /  1.6km/h 3mph /  4.8km/h 68% 0.00in /  0mm 0 W/m2
01:00 64 °F /  17.8 °C 53.6 °F /  12 °C 30.02in /  1016.5hPa Calm   2mph /  3.2km/h 69% 0.00in /  0mm 0 W/m2
01:10 63.7 °F /  17.6 °C 53.3 °F /  11.8 °C 30.02in /  1016.5hPa NNE 2mph /  3.2km/h 3mph /  4.8km/h 69% 0.00in /  0mm 0 W/m2
01:20 63.5 °F /  17.5 °C 53.5 °F /  11.9 °C 30.02in /  1016.5hPa Calm   2mph /  3.2km/h 70% 0.00in /  0mm 0 W/m2
01:30 63.1 °F /  17.3 °C 53.2 °F /  11.8 °C 30.03in /  1016.8hPa WSW 2mph /  3.2km/h 3mph /  4.8km/h 70% 0.00in /  0mm 0 W/m2
01:40 62.8 °F /  17.1 °C 52.8 °F /  11.6 °C 30.03in /  1016.8hPa WSW 2mph /  3.2km/h 4mph /  6.4km/h 70% 0.00in /  0mm 0 W/m2
01:50 62.8 °F /  17.1 °C 52.8 °F /  11.6 °C 30.03in /  1016.8hPa WNW 2mph /  3.2km/h 6mph /  9.7km/h 70% 0.00in /  0mm 0 W/m2
02:00 62.8 °F /  17.1 °C 53.6 °F /  12 °C 30.03in /  1016.8hPa West 1mph /  1.6km/h 3mph /  4.8km/h 72% 0.00in /  0mm 0 W/m2
02:10 63 °F /  17.2 °C 53 °F /  11.7 °C 30.03in /  1016.8hPa NNW 1mph /  1.6km/h 2mph /  3.2km/h 70% 0.00in /  0mm 0 W/m2
02:20 63 °F /  17.2 °C 53 °F /  11.7 °C 30.03in /  1016.8hPa North 1mph /  1.6km/h 2mph /  3.2km/h 70% 0.00in /  0mm 0 W/m2
02:30 63.1 °F /  17.3 °C 53.2 °F /  11.8 °C 30.03in /  1016.8hPa NNE 5mph /  8km/h 7mph /  11.3km/h 70% 0.00in /  0mm 0 W/m2
02:40 63 °F /  17.2 °C 53 °F /  11.7 °C 30.04in /  1017.2hPa NW 3mph /  4.8km/h 7mph /  11.3km/h 70% 0.00in /  0mm 0 W/m2
02:50 63.3 °F /  17.4 °C 53.4 °F /  11.9 °C 30.04in /  1017.2hPa WNW 2mph /  3.2km/h 7mph /  11.3km/h 70% 0.00in /  0mm 0 W/m2
03:00 63.9 °F /  17.7 °C 54.7 °F /  12.6 °C 30.04in /  1017.2hPa WNW 2mph /  3.2km/h 5mph /  8km/h 72% 0.00in /  0mm 0 W/m2
03:10 64.2 °F /  17.9 °C 55.4 °F /  13 °C 30.04in /  1017.2hPa WSW 2mph /  3.2km/h 6mph /  9.7km/h 73% 0.00in /  0mm 0 W/m2
03:20 64.6 °F /  18.1 °C 57.2 °F /  14 °C 30.04in /  1017.2hPa WSW 3mph /  4.8km/h 6mph /  9.7km/h 77% 0.00in /  0mm 0 W/m2
03:30 64.9 °F /  18.3 °C 57.6 °F /  14.2 °C 30.04in /  1017.2hPa WSW 2mph /  3.2km/h 5mph /  8km/h 77% 0.00in /  0mm 0 W/m2
03:40 64.9 °F /  18.3 °C 56.8 °F /  13.8 °C 30.04in /  1017.2hPa WSW 1mph /  1.6km/h 3mph /  4.8km/h 75% 0.00in /  0mm 0 W/m2
03:50 64.9 °F /  18.3 °C 57.2 °F /  14 °C 30.04in /  1017.2hPa SSW 3mph /  4.8km/h 6mph /  9.7km/h 76% 0.00in /  0mm 0 W/m2
04:00 65.1 °F /  18.4 °C 58.1 °F /  14.5 °C 30.04in /  1017.2hPa SSW 2mph /  3.2km/h 6mph /  9.7km/h 78% 0.00in /  0mm 0 W/m2
04:10 65.5 °F /  18.6 °C 58.8 °F /  14.9 °C 30.04in /  1017.2hPa SSE 2mph /  3.2km/h 5mph /  8km/h 79% 0.00in /  0mm 0 W/m2
04:20 65.8 °F /  18.8 °C 59.5 °F /  15.3 °C 30.04in /  1017.2hPa SE 1mph /  1.6km/h 5mph /  8km/h 80% 0.00in /  0mm 0 W/m2
04:30 65.9 °F /  18.8 °C 59.5 °F /  15.3 °C 30.04in /  1017.2hPa SSW 2mph /  3.2km/h 5mph /  8km/h 80% 0.00in /  0mm 0 W/m2
04:40 66 °F /  18.9 °C 59.7 °F /  15.4 °C 30.04in /  1017.2hPa South 2mph /  3.2km/h 5mph /  8km/h 80% 0.00in /  0mm 0 W/m2
04:50 66 °F /  18.9 °C 59.3 °F /  15.2 °C 30.04in /  1017.2hPa SW 2mph /  3.2km/h 4mph /  6.4km/h 79% 0.00in /  0mm 0 W/m2
05:00 65.5 °F /  18.6 °C 58.8 °F /  14.9 °C 30.04in /  1017.2hPa WSW 2mph /  3.2km/h 5mph /  8km/h 79% 0.00in /  0mm 0 W/m2
05:10 65.3 °F /  18.5 °C 59 °F /  15 °C 30.05in /  1017.5hPa West 2mph /  3.2km/h 5mph /  8km/h 80% 0.00in /  0mm 0 W/m2
05:20 65.3 °F /  18.5 °C 59.3 °F /  15.2 °C 30.05in /  1017.5hPa WSW 3mph /  4.8km/h 6mph /  9.7km/h 81% 0.00in /  0mm 0 W/m2
05:30 65.3 °F /  18.5 °C 59.3 °F /  15.2 °C 30.05in /  1017.5hPa WSW 2mph /  3.2km/h 6mph /  9.7km/h 81% 0.00in /  0mm 0 W/m2
05:40 65.3 °F /  18.5 °C 60 °F /  15.6 °C 30.05in /  1017.5hPa WSW 5mph /  8km/h 12mph /  19.3km/h 83% 0.00in /  0mm 0 W/m2
05:50 65.1 °F /  18.4 °C 59.8 °F /  15.4 °C 30.06in /  1017.8hPa SW 3mph /  4.8km/h 8mph /  12.9km/h 83% 0.00in /  0mm 4 W/m2
06:00 65.1 °F /  18.4 °C 59.8 °F /  15.4 °C 30.06in /  1017.8hPa SW 3mph /  4.8km/h 7mph /  11.3km/h 83% 0.00in /  0mm 11 W/m2
06:10 64.9 °F /  18.3 °C 59.7 °F /  15.4 °C 30.06in /  1017.8hPa WSW 2mph /  3.2km/h 5mph /  8km/h 83% 0.00in /  0mm 20 W/m2
06:20 64.8 °F /  18.2 °C 59.5 °F /  15.3 °C 30.07in /  1018.2hPa SW 3mph /  4.8km/h 7mph /  11.3km/h 83% 0.00in /  0mm 32 W/m2
06:30 64.8 °F /  18.2 °C 59.8 °F /  15.4 °C 30.07in /  1018.2hPa WSW 3mph /  4.8km/h 8mph /  12.9km/h 84% 0.00in /  0mm 46 W/m2
06:40 64.8 °F /  18.2 °C 59.6 °F /  15.3 °C 30.07in /  1018.2hPa SW 2mph /  3.2km/h 6mph /  9.7km/h 83% 0.00in /  0mm 63 W/m2
06:50 65 °F /  18.3 °C 59.7 °F /  15.4 °C 30.07in /  1018.2hPa Calm   6mph /  9.7km/h 83% 0.00in /  0mm 81 W/m2
07:00 65.1 °F /  18.4 °C 59.8 °F /  15.4 °C 30.07in /  1018.2hPa Calm   2mph /  3.2km/h 83% 0.00in /  0mm 102 W/m2
07:10 65.2 °F /  18.4 °C 59.9 °F /  15.5 °C 30.08in /  1018.5hPa Calm   2mph /  3.2km/h 83% 0.00in /  0mm 123 W/m2
07:20 65.5 °F /  18.6 °C 59.8 °F /  15.4 °C 30.08in /  1018.5hPa North 1mph /  1.6km/h 2mph /  3.2km/h 82% 0.00in /  0mm 146 W/m2
07:30 65.7 °F /  18.7 °C 59.7 °F /  15.4 °C 30.08in /  1018.5hPa Calm   4mph /  6.4km/h 81% 0.00in /  0mm 172 W/m2
07:40 66 °F /  18.9 °C 60 °F /  15.6 °C 30.08in /  1018.5hPa Calm   3mph /  4.8km/h 81% 0.00in /  0mm 202 W/m2
07:50 66.3 °F /  19.1 °C 59.9 °F /  15.5 °C 30.08in /  1018.5hPa Calm   4mph /  6.4km/h 80% 0.00in /  0mm 234 W/m2
08:00 66.7 °F /  19.3 °C 60.4 °F /  15.8 °C 30.08in /  1018.5hPa North 1mph /  1.6km/h 3mph /  4.8km/h 80% 0.00in /  0mm 266 W/m2
08:10 67.1 °F /  19.5 °C 60.7 °F /  15.9 °C 30.08in /  1018.5hPa SSW 1mph /  1.6km/h 2mph /  3.2km/h 80% 0.00in /  0mm 296 W/m2
08:20 67.6 °F /  19.8 °C 60.9 °F /  16.1 °C 30.08in /  1018.5hPa SE 1mph /  1.6km/h 3mph /  4.8km/h 79% 0.00in /  0mm 329 W/m2
08:30 68.1 °F /  20.1 °C 60.9 °F /  16.1 °C 30.08in /  1018.5hPa WSW 1mph /  1.6km/h 3mph /  4.8km/h 78% 0.00in /  0mm 358 W/m2
08:40 68.9 °F /  20.5 °C 61.4 °F /  16.3 °C 30.08in /  1018.5hPa Calm   5mph /  8km/h 77% 0.00in /  0mm 380 W/m2
08:50 70 °F /  21.1 °C 62.1 °F /  16.7 °C 30.08in /  1018.5hPa WSW 2mph /  3.2km/h 5mph /  8km/h 76% 0.00in /  0mm 408 W/m2
09:00 71.1 °F /  21.7 °C 62.4 °F /  16.9 °C 30.08in /  1018.5hPa Calm   3mph /  4.8km/h 74% 0.00in /  0mm 439 W/m2
09:10 72.1 °F /  22.3 °C 63 °F /  17.2 °C 30.08in /  1018.5hPa South 2mph /  3.2km/h 5mph /  8km/h 73% 0.00in /  0mm 483 W/m2
09:20 72.7 °F /  22.6 °C 63.1 °F /  17.3 °C 30.08in /  1018.5hPa NW 1mph /  1.6km/h 6mph /  9.7km/h 72% 0.00in /  0mm 506 W/m2
09:30 73.6 °F /  23.1 °C 63.2 °F /  17.3 °C 30.08in /  1018.5hPa NNW 1mph /  1.6km/h 6mph /  9.7km/h 70% 0.00in /  0mm 326 W/m2
09:40 74.1 °F /  23.4 °C 63.3 °F /  17.4 °C 30.08in /  1018.5hPa NW 2mph /  3.2km/h 5mph /  8km/h 69% 0.00in /  0mm 386 W/m2
09:50 74.7 °F /  23.7 °C 63.4 °F /  17.4 °C 30.08in /  1018.5hPa WNW 2mph /  3.2km/h 6mph /  9.7km/h 68% 0.00in /  0mm 479 W/m2
10:00 75.7 °F /  24.3 °C 64.4 °F /  18 °C 30.08in /  1018.5hPa WNW 2mph /  3.2km/h 6mph /  9.7km/h 68% 0.00in /  0mm 577 W/m2
10:10 76.3 °F /  24.6 °C 64.1 °F /  17.8 °C 30.08in /  1018.5hPa SW 3mph /  4.8km/h 8mph /  12.9km/h 66% 0.00in /  0mm 652 W/m2
10:20 76.7 °F /  24.8 °C 64.1 °F /  17.8 °C 30.08in /  1018.5hPa West 2mph /  3.2km/h 9mph /  14.5km/h 65% 0.00in /  0mm 705 W/m2
10:30 77.2 °F /  25.1 °C 64.5 °F /  18.1 °C 30.07in /  1018.2hPa SW 5mph /  8km/h 7mph /  11.3km/h 65% 0.00in /  0mm 729 W/m2
10:40 77.7 °F /  25.4 °C 64.1 °F /  17.8 °C 30.07in /  1018.2hPa SW 3mph /  4.8km/h 9mph /  14.5km/h 63% 0.00in /  0mm 743 W/m2
10:50 78.3 °F /  25.7 °C 63.2 °F /  17.3 °C 30.07in /  1018.2hPa WSW 5mph /  8km/h 9mph /  14.5km/h 60% 0.00in /  0mm 311 W/m2
11:00 78.6 °F /  25.9 °C 63.6 °F /  17.6 °C 30.07in /  1018.2hPa SW 5mph /  8km/h 10mph /  16.1km/h 60% 0.00in /  0mm 435 W/m2
11:10 79 °F /  26.1 °C 64.4 °F /  18 °C 30.06in /  1017.8hPa ESE 1mph /  1.6km/h 7mph /  11.3km/h 61% 0.00in /  0mm 790 W/m2
11:20 79.7 °F /  26.5 °C 64.1 °F /  17.8 °C 30.06in /  1017.8hPa SSW 5mph /  8km/h 8mph /  12.9km/h 59% 0.00in /  0mm 321 W/m2
11:30 80.2 °F /  26.8 °C 64.1 °F /  17.8 °C 30.06in /  1017.8hPa SSW 3mph /  4.8km/h 8mph /  12.9km/h 58% 0.00in /  0mm 808 W/m2
11:40 80.5 °F /  26.9 °C 64.3 °F /  17.9 °C 30.06in /  1017.8hPa SW 2mph /  3.2km/h 9mph /  14.5km/h 58% 0.00in /  0mm 823 W/m2
11:50 80.8 °F /  27.1 °C 64.6 °F /  18.1 °C 30.06in /  1017.8hPa SSW 3mph /  4.8km/h 8mph /  12.9km/h 58% 0.00in /  0mm 840 W/m2
12:00 81.3 °F /  27.4 °C 65.1 °F /  18.4 °C 30.05in /  1017.5hPa SW 5mph /  8km/h 7mph /  11.3km/h 58% 0.00in /  0mm 806 W/m2
12:10 81.5 °F /  27.5 °C 63.8 °F /  17.7 °C 30.05in /  1017.5hPa SW 2mph /  3.2km/h 8mph /  12.9km/h 55% 0.00in /  0mm 846 W/m2
12:20 81.7 °F /  27.6 °C 63.9 °F /  17.7 °C 30.05in /  1017.5hPa SW 5mph /  8km/h 9mph /  14.5km/h 55% 0.00in /  0mm 808 W/m2
12:30 82.2 °F /  27.9 °C 63.9 °F /  17.7 °C 30.04in /  1017.2hPa SSW 2mph /  3.2km/h 9mph /  14.5km/h 54% 0.00in /  0mm 865 W/m2
12:40 83.2 °F /  28.4 °C 64.8 °F /  18.2 °C 30.04in /  1017.2hPa SW 3mph /  4.8km/h 7mph /  11.3km/h 54% 0.00in /  0mm 864 W/m2
12:50 84 °F /  28.9 °C 64.5 °F /  18.1 °C 30.04in /  1017.2hPa Calm   7mph /  11.3km/h 52% 0.00in /  0mm 862 W/m2
13:00 84.3 °F /  29.1 °C 64.7 °F /  18.2 °C 30.03in /  1016.8hPa NNE 2mph /  3.2km/h 6mph /  9.7km/h 52% 0.00in /  0mm 859 W/m2
13:10 84.9 °F /  29.4 °C 65.9 °F /  18.8 °C 30.03in /  1016.8hPa WSW 2mph /  3.2km/h 8mph /  12.9km/h 53% 0.00in /  0mm 853 W/m2
13:20 85.3 °F /  29.6 °C 64.5 °F /  18.1 °C 30.03in /  1016.8hPa SW 5mph /  8km/h 7mph /  11.3km/h 50% 0.00in /  0mm 835 W/m2
13:30 85.5 °F /  29.7 °C 64.7 °F /  18.2 °C 30.03in /  1016.8hPa WSW 2mph /  3.2km/h 5mph /  8km/h 50% 0.00in /  0mm 810 W/m2
13:40 85.8 °F /  29.9 °C 64.5 °F /  18.1 °C 30.03in /  1016.8hPa WSW 1mph /  1.6km/h 9mph /  14.5km/h 49% 0.00in /  0mm 791 W/m2
13:50 86 °F /  30 °C 63.4 °F /  17.4 °C 30.02in /  1016.5hPa SSW 2mph /  3.2km/h 7mph /  11.3km/h 47% 0.00in /  0mm 793 W/m2
14:00 86.4 °F /  30.2 °C 64.4 °F /  18 °C 30.02in /  1016.5hPa SW 2mph /  3.2km/h 7mph /  11.3km/h 48% 0.00in /  0mm 761 W/m2
14:10 86.7 °F /  30.4 °C 64.1 °F /  17.8 °C 30.01in /  1016.1hPa Calm   5mph /  8km/h 47% 0.00in /  0mm 745 W/m2
14:20 87.2 °F /  30.7 °C 64.5 °F /  18.1 °C 30.01in /  1016.1hPa West 2mph /  3.2km/h 6mph /  9.7km/h 47% 0.00in /  0mm 730 W/m2
14:30 87.4 °F /  30.8 °C 62.8 °F /  17.1 °C 30.01in /  1016.1hPa South 3mph /  4.8km/h 7mph /  11.3km/h 44% 0.00in /  0mm 706 W/m2
14:40 87.4 °F /  30.8 °C 63.5 °F /  17.5 °C 30.00in /  1015.8hPa West 3mph /  4.8km/h 6mph /  9.7km/h 45% 0.00in /  0mm 682 W/m2
14:50 87.6 °F /  30.9 °C 63 °F /  17.2 °C 30.00in /  1015.8hPa SW 2mph /  3.2km/h 6mph /  9.7km/h 44% 0.00in /  0mm 667 W/m2
Knjazevac, Serbia
Compliments of Weather Underground - 2 mb